sensor_id;sensor_type;location;lat;lon;timestamp;P1;durP1;ratioP1;P2;durP2;ratioP2
30892;SDS011;17595;50.884;4.346;2023-08-17T00:00:06;0.50;;;0.50;;
30892;SDS011;17595;50.884;4.346;2023-08-17T00:02:38;0.75;;;0.40;;
30892;SDS011;17595;50.884;4.346;2023-08-17T00:07:33;0.25;;;0.25;;
30892;SDS011;17595;50.884;4.346;2023-08-17T00:09:59;0.10;;;0.10;;
30892;SDS011;17595;50.884;4.346;2023-08-17T00:12:25;0.32;;;0.32;;
30892;SDS011;17595;50.884;4.346;2023-08-17T00:14:51;1.92;;;0.40;;
30892;SDS011;17595;50.884;4.346;2023-08-17T00:17:17;0.40;;;0.40;;
30892;SDS011;17595;50.884;4.346;2023-08-17T00:19:43;0.30;;;0.30;;
30892;SDS011;17595;50.884;4.346;2023-08-17T00:22:08;1.88;;;1.17;;
30892;SDS011;17595;50.884;4.346;2023-08-17T00:24:34;0.57;;;0.30;;
30892;SDS011;17595;50.884;4.346;2023-08-17T00:27:00;0.40;;;0.40;;
30892;SDS011;17595;50.884;4.346;2023-08-17T00:29:25;0.50;;;0.50;;
30892;SDS011;17595;50.884;4.346;2023-08-17T00:31:51;0.43;;;0.43;;
30892;SDS011;17595;50.884;4.346;2023-08-17T00:34:17;0.32;;;0.32;;
30892;SDS011;17595;50.884;4.346;2023-08-17T00:36:43;1.15;;;0.35;;
30892;SDS011;17595;50.884;4.346;2023-08-17T00:39:09;0.30;;;0.25;;
30892;SDS011;17595;50.884;4.346;2023-08-17T00:41:35;0.32;;;0.32;;
30892;SDS011;17595;50.884;4.346;2023-08-17T00:44:00;0.30;;;0.30;;
30892;SDS011;17595;50.884;4.346;2023-08-17T00:46:26;0.55;;;0.47;;
30892;SDS011;17595;50.884;4.346;2023-08-17T00:48:53;0.80;;;0.38;;
30892;SDS011;17595;50.884;4.346;2023-08-17T00:51:20;0.40;;;0.40;;
30892;SDS011;17595;50.884;4.346;2023-08-17T00:53:51;0.38;;;0.38;;
30892;SDS011;17595;50.884;4.346;2023-08-17T00:56:19;0.40;;;0.40;;
30892;SDS011;17595;50.884;4.346;2023-08-17T00:58:46;0.28;;;0.28;;
30892;SDS011;17595;50.884;4.346;2023-08-17T01:01:12;1.00;;;0.90;;
30892;SDS011;17595;50.884;4.346;2023-08-17T01:03:39;0.43;;;0.35;;
30892;SDS011;17595;50.884;4.346;2023-08-17T01:06:06;0.70;;;0.60;;
30892;SDS011;17595;50.884;4.346;2023-08-17T01:08:32;0.50;;;0.50;;
30892;SDS011;17595;50.884;4.346;2023-08-17T01:13:32;0.30;;;0.30;;
30892;SDS011;17595;50.884;4.346;2023-08-17T01:16:05;0.45;;;0.45;;
30892;SDS011;17595;50.884;4.346;2023-08-17T01:18:35;0.68;;;0.57;;
30892;SDS011;17595;50.884;4.346;2023-08-17T01:21:02;2.45;;;1.02;;
30892;SDS011;17595;50.884;4.346;2023-08-17T01:23:31;0.35;;;0.35;;
30892;SDS011;17595;50.884;4.346;2023-08-17T01:25:57;0.30;;;0.30;;
30892;SDS011;17595;50.884;4.346;2023-08-17T01:28:22;0.35;;;0.35;;
30892;SDS011;17595;50.884;4.346;2023-08-17T01:31:02;0.77;;;0.77;;
30892;SDS011;17595;50.884;4.346;2023-08-17T01:33:37;0.40;;;0.40;;
30892;SDS011;17595;50.884;4.346;2023-08-17T01:36:11;0.47;;;0.47;;
30892;SDS011;17595;50.884;4.346;2023-08-17T01:38:43;0.38;;;0.38;;
30892;SDS011;17595;50.884;4.346;2023-08-17T01:41:10;0.30;;;0.30;;
30892;SDS011;17595;50.884;4.346;2023-08-17T01:43:38;0.25;;;0.25;;
30892;SDS011;17595;50.884;4.346;2023-08-17T01:46:06;0.30;;;0.30;;
30892;SDS011;17595;50.884;4.346;2023-08-17T01:48:32;0.30;;;0.30;;
30892;SDS011;17595;50.884;4.346;2023-08-17T01:50:58;0.40;;;0.40;;
30892;SDS011;17595;50.884;4.346;2023-08-17T01:53:23;0.82;;;0.60;;
30892;SDS011;17595;50.884;4.346;2023-08-17T01:55:49;0.30;;;0.20;;
30892;SDS011;17595;50.884;4.346;2023-08-17T01:58:15;0.20;;;0.20;;
30892;SDS011;17595;50.884;4.346;2023-08-17T02:00:40;1.67;;;0.77;;
30892;SDS011;17595;50.884;4.346;2023-08-17T02:03:06;0.40;;;0.40;;
30892;SDS011;17595;50.884;4.346;2023-08-17T02:05:32;0.30;;;0.30;;
30892;SDS011;17595;50.884;4.346;2023-08-17T02:07:57;0.28;;;0.28;;
30892;SDS011;17595;50.884;4.346;2023-08-17T02:10:23;1.48;;;0.77;;
30892;SDS011;17595;50.884;4.346;2023-08-17T02:12:49;0.40;;;0.40;;
30892;SDS011;17595;50.884;4.346;2023-08-17T02:15:15;0.30;;;0.30;;
30892;SDS011;17595;50.884;4.346;2023-08-17T02:17:41;0.60;;;0.60;;
30892;SDS011;17595;50.884;4.346;2023-08-17T02:20:06;0.25;;;0.20;;
30892;SDS011;17595;50.884;4.346;2023-08-17T02:22:33;0.40;;;0.40;;
30892;SDS011;17595;50.884;4.346;2023-08-17T02:24:59;0.32;;;0.32;;
30892;SDS011;17595;50.884;4.346;2023-08-17T02:27:25;0.40;;;0.40;;
30892;SDS011;17595;50.884;4.346;2023-08-17T02:29:51;0.40;;;0.40;;
30892;SDS011;17595;50.884;4.346;2023-08-17T02:32:17;0.35;;;0.35;;
30892;SDS011;17595;50.884;4.346;2023-08-17T02:34:42;0.40;;;0.40;;
30892;SDS011;17595;50.884;4.346;2023-08-17T02:37:08;0.55;;;0.50;;
30892;SDS011;17595;50.884;4.346;2023-08-17T02:39:34;0.50;;;0.50;;
30892;SDS011;17595;50.884;4.346;2023-08-17T02:41:59;0.28;;;0.22;;
30892;SDS011;17595;50.884;4.346;2023-08-17T02:44:25;0.35;;;0.30;;
30892;SDS011;17595;50.884;4.346;2023-08-17T02:46:53;0.40;;;0.40;;
30892;SDS011;17595;50.884;4.346;2023-08-17T02:49:19;0.50;;;0.50;;
30892;SDS011;17595;50.884;4.346;2023-08-17T02:51:45;0.30;;;0.30;;
30892;SDS011;17595;50.884;4.346;2023-08-17T02:54:10;0.50;;;0.50;;
30892;SDS011;17595;50.884;4.346;2023-08-17T02:56:36;0.30;;;0.30;;
30892;SDS011;17595;50.884;4.346;2023-08-17T02:59:02;0.95;;;0.95;;
30892;SDS011;17595;50.884;4.346;2023-08-17T03:01:27;0.30;;;0.30;;
30892;SDS011;17595;50.884;4.346;2023-08-17T03:03:54;0.45;;;0.45;;
30892;SDS011;17595;50.884;4.346;2023-08-17T03:06:19;0.20;;;0.20;;
30892;SDS011;17595;50.884;4.346;2023-08-17T03:08:45;0.73;;;0.73;;
30892;SDS011;17595;50.884;4.346;2023-08-17T03:11:11;0.20;;;0.20;;
30892;SDS011;17595;50.884;4.346;2023-08-17T03:13:37;0.40;;;0.40;;
30892;SDS011;17595;50.884;4.346;2023-08-17T03:16:02;0.30;;;0.30;;
30892;SDS011;17595;50.884;4.346;2023-08-17T03:18:28;0.20;;;0.20;;
30892;SDS011;17595;50.884;4.346;2023-08-17T03:20:54;0.50;;;0.50;;
30892;SDS011;17595;50.884;4.346;2023-08-17T03:23:19;0.47;;;0.47;;
30892;SDS011;17595;50.884;4.346;2023-08-17T03:25:45;0.43;;;0.43;;
30892;SDS011;17595;50.884;4.346;2023-08-17T03:28:11;0.85;;;0.47;;
30892;SDS011;17595;50.884;4.346;2023-08-17T03:30:36;0.90;;;0.57;;
30892;SDS011;17595;50.884;4.346;2023-08-17T03:33:02;0.40;;;0.40;;
30892;SDS011;17595;50.884;4.346;2023-08-17T03:35:28;0.50;;;0.50;;
30892;SDS011;17595;50.884;4.346;2023-08-17T03:37:54;0.38;;;0.38;;
30892;SDS011;17595;50.884;4.346;2023-08-17T03:40:19;0.52;;;0.52;;
30892;SDS011;17595;50.884;4.346;2023-08-17T03:42:45;0.38;;;0.38;;
30892;SDS011;17595;50.884;4.346;2023-08-17T03:45:10;0.50;;;0.50;;
30892;SDS011;17595;50.884;4.346;2023-08-17T03:47:36;0.40;;;0.40;;
30892;SDS011;17595;50.884;4.346;2023-08-17T03:50:02;0.57;;;0.57;;
30892;SDS011;17595;50.884;4.346;2023-08-17T03:52:27;0.40;;;0.25;;
30892;SDS011;17595;50.884;4.346;2023-08-17T03:54:53;0.40;;;0.40;;
30892;SDS011;17595;50.884;4.346;2023-08-17T03:57:19;0.43;;;0.43;;
30892;SDS011;17595;50.884;4.346;2023-08-17T03:59:44;0.60;;;0.57;;
30892;SDS011;17595;50.884;4.346;2023-08-17T04:02:10;0.60;;;0.55;;
30892;SDS011;17595;50.884;4.346;2023-08-17T04:04:36;0.22;;;0.22;;
30892;SDS011;17595;50.884;4.346;2023-08-17T04:07:01;0.20;;;0.20;;
30892;SDS011;17595;50.884;4.346;2023-08-17T04:09:27;0.52;;;0.52;;
30892;SDS011;17595;50.884;4.346;2023-08-17T04:11:53;0.47;;;0.40;;
30892;SDS011;17595;50.884;4.346;2023-08-17T04:14:19;1.02;;;0.60;;
30892;SDS011;17595;50.884;4.346;2023-08-17T04:16:45;0.65;;;0.38;;
30892;SDS011;17595;50.884;4.346;2023-08-17T04:19:11;0.70;;;0.55;;
30892;SDS011;17595;50.884;4.346;2023-08-17T04:21:36;0.38;;;0.38;;
30892;SDS011;17595;50.884;4.346;2023-08-17T04:24:02;0.30;;;0.30;;
30892;SDS011;17595;50.884;4.346;2023-08-17T04:26:28;0.40;;;0.40;;
30892;SDS011;17595;50.884;4.346;2023-08-17T04:28:53;2.35;;;0.45;;
30892;SDS011;17595;50.884;4.346;2023-08-17T04:31:19;0.77;;;0.57;;
30892;SDS011;17595;50.884;4.346;2023-08-17T04:33:45;1.63;;;0.60;;
30892;SDS011;17595;50.884;4.346;2023-08-17T04:36:10;0.60;;;0.60;;
30892;SDS011;17595;50.884;4.346;2023-08-17T04:38:36;0.50;;;0.50;;
30892;SDS011;17595;50.884;4.346;2023-08-17T04:41:01;0.50;;;0.50;;
30892;SDS011;17595;50.884;4.346;2023-08-17T04:43:27;0.50;;;0.50;;
30892;SDS011;17595;50.884;4.346;2023-08-17T04:45:53;1.35;;;1.25;;
30892;SDS011;17595;50.884;4.346;2023-08-17T04:48:18;0.30;;;0.30;;
30892;SDS011;17595;50.884;4.346;2023-08-17T04:50:44;0.22;;;0.22;;
30892;SDS011;17595;50.884;4.346;2023-08-17T04:53:10;1.60;;;1.02;;
30892;SDS011;17595;50.884;4.346;2023-08-17T04:55:35;0.40;;;0.40;;
30892;SDS011;17595;50.884;4.346;2023-08-17T04:58:01;0.55;;;0.43;;
30892;SDS011;17595;50.884;4.346;2023-08-17T05:00:27;0.40;;;0.40;;
30892;SDS011;17595;50.884;4.346;2023-08-17T05:02:56;0.30;;;0.30;;
30892;SDS011;17595;50.884;4.346;2023-08-17T05:05:22;0.77;;;0.50;;
30892;SDS011;17595;50.884;4.346;2023-08-17T05:07:48;0.55;;;0.55;;
30892;SDS011;17595;50.884;4.346;2023-08-17T05:10:14;0.52;;;0.52;;
30892;SDS011;17595;50.884;4.346;2023-08-17T05:12:40;0.30;;;0.30;;
30892;SDS011;17595;50.884;4.346;2023-08-17T05:15:06;0.22;;;0.22;;
30892;SDS011;17595;50.884;4.346;2023-08-17T05:17:32;1.10;;;1.00;;
30892;SDS011;17595;50.884;4.346;2023-08-17T05:19:57;0.43;;;0.43;;
30892;SDS011;17595;50.884;4.346;2023-08-17T05:22:23;0.47;;;0.43;;
30892;SDS011;17595;50.884;4.346;2023-08-17T05:24:49;1.63;;;0.40;;
30892;SDS011;17595;50.884;4.346;2023-08-17T05:27:14;0.32;;;0.32;;
30892;SDS011;17595;50.884;4.346;2023-08-17T05:29:40;0.40;;;0.40;;
30892;SDS011;17595;50.884;4.346;2023-08-17T05:32:05;0.30;;;0.30;;
30892;SDS011;17595;50.884;4.346;2023-08-17T05:34:31;0.30;;;0.30;;
30892;SDS011;17595;50.884;4.346;2023-08-17T05:36:57;0.35;;;0.35;;
30892;SDS011;17595;50.884;4.346;2023-08-17T05:39:22;0.30;;;0.30;;
30892;SDS011;17595;50.884;4.346;2023-08-17T05:41:48;0.35;;;0.25;;
30892;SDS011;17595;50.884;4.346;2023-08-17T05:44:14;1.35;;;1.10;;
30892;SDS011;17595;50.884;4.346;2023-08-17T05:46:40;0.32;;;0.32;;
30892;SDS011;17595;50.884;4.346;2023-08-17T05:49:06;1.33;;;0.60;;
30892;SDS011;17595;50.884;4.346;2023-08-17T05:51:31;0.47;;;0.45;;
30892;SDS011;17595;50.884;4.346;2023-08-17T05:53:57;0.35;;;0.35;;
30892;SDS011;17595;50.884;4.346;2023-08-17T05:56:23;0.28;;;0.28;;
30892;SDS011;17595;50.884;4.346;2023-08-17T05:58:49;0.20;;;0.20;;
30892;SDS011;17595;50.884;4.346;2023-08-17T06:01:14;0.40;;;0.40;;
30892;SDS011;17595;50.884;4.346;2023-08-17T06:03:40;0.30;;;0.30;;
30892;SDS011;17595;50.884;4.346;2023-08-17T06:06:06;0.20;;;0.20;;
30892;SDS011;17595;50.884;4.346;2023-08-17T06:08:32;0.40;;;0.40;;
30892;SDS011;17595;50.884;4.346;2023-08-17T06:10:58;0.60;;;0.60;;
30892;SDS011;17595;50.884;4.346;2023-08-17T06:13:23;0.98;;;0.52;;
30892;SDS011;17595;50.884;4.346;2023-08-17T06:15:49;0.40;;;0.28;;
30892;SDS011;17595;50.884;4.346;2023-08-17T06:18:15;1.77;;;0.85;;
30892;SDS011;17595;50.884;4.346;2023-08-17T06:20:40;0.38;;;0.38;;
30892;SDS011;17595;50.884;4.346;2023-08-17T06:23:06;0.30;;;0.30;;
30892;SDS011;17595;50.884;4.346;2023-08-17T06:25:32;0.77;;;0.77;;
30892;SDS011;17595;50.884;4.346;2023-08-17T06:27:59;0.40;;;0.40;;
30892;SDS011;17595;50.884;4.346;2023-08-17T06:30:25;0.30;;;0.30;;
30892;SDS011;17595;50.884;4.346;2023-08-17T06:32:51;1.35;;;0.47;;
30892;SDS011;17595;50.884;4.346;2023-08-17T06:35:17;0.20;;;0.20;;
30892;SDS011;17595;50.884;4.346;2023-08-17T06:37:43;0.40;;;0.40;;
30892;SDS011;17595;50.884;4.346;2023-08-17T06:40:08;0.85;;;0.73;;
30892;SDS011;17595;50.884;4.346;2023-08-17T06:42:34;0.52;;;0.38;;
30892;SDS011;17595;50.884;4.346;2023-08-17T06:45:00;0.50;;;0.50;;
30892;SDS011;17595;50.884;4.346;2023-08-17T06:47:26;0.70;;;0.70;;
30892;SDS011;17595;50.884;4.346;2023-08-17T06:49:52;0.28;;;0.28;;
30892;SDS011;17595;50.884;4.346;2023-08-17T06:52:18;0.30;;;0.30;;
30892;SDS011;17595;50.884;4.346;2023-08-17T06:54:43;0.30;;;0.30;;
30892;SDS011;17595;50.884;4.346;2023-08-17T06:57:09;0.30;;;0.30;;
30892;SDS011;17595;50.884;4.346;2023-08-17T06:59:35;0.50;;;0.50;;
30892;SDS011;17595;50.884;4.346;2023-08-17T07:02:00;0.52;;;0.52;;
30892;SDS011;17595;50.884;4.346;2023-08-17T07:04:26;0.45;;;0.45;;
30892;SDS011;17595;50.884;4.346;2023-08-17T07:06:52;1.98;;;0.73;;
30892;SDS011;17595;50.884;4.346;2023-08-17T07:09:17;0.50;;;0.50;;
30892;SDS011;17595;50.884;4.346;2023-08-17T07:11:43;0.50;;;0.40;;
30892;SDS011;17595;50.884;4.346;2023-08-17T07:14:09;0.40;;;0.40;;
30892;SDS011;17595;50.884;4.346;2023-08-17T07:16:35;0.82;;;0.82;;
30892;SDS011;17595;50.884;4.346;2023-08-17T07:19:01;0.40;;;0.40;;
30892;SDS011;17595;50.884;4.346;2023-08-17T07:21:27;0.30;;;0.30;;
30892;SDS011;17595;50.884;4.346;2023-08-17T07:23:53;0.20;;;0.20;;
30892;SDS011;17595;50.884;4.346;2023-08-17T07:26:19;0.30;;;0.30;;
30892;SDS011;17595;50.884;4.346;2023-08-17T07:28:46;0.38;;;0.38;;
30892;SDS011;17595;50.884;4.346;2023-08-17T07:31:12;0.28;;;0.28;;
30892;SDS011;17595;50.884;4.346;2023-08-17T07:33:38;0.30;;;0.30;;
30892;SDS011;17595;50.884;4.346;2023-08-17T07:36:04;0.30;;;0.30;;
30892;SDS011;17595;50.884;4.346;2023-08-17T07:38:30;0.40;;;0.40;;
30892;SDS011;17595;50.884;4.346;2023-08-17T07:40:55;0.40;;;0.40;;
30892;SDS011;17595;50.884;4.346;2023-08-17T07:43:21;0.65;;;0.65;;
30892;SDS011;17595;50.884;4.346;2023-08-17T07:45:53;0.40;;;0.40;;
30892;SDS011;17595;50.884;4.346;2023-08-17T07:48:22;0.82;;;0.82;;
30892;SDS011;17595;50.884;4.346;2023-08-17T07:50:51;0.60;;;0.60;;
30892;SDS011;17595;50.884;4.346;2023-08-17T07:53:17;1.00;;;0.70;;
30892;SDS011;17595;50.884;4.346;2023-08-17T07:55:44;0.40;;;0.40;;
30892;SDS011;17595;50.884;4.346;2023-08-17T07:58:10;0.80;;;0.80;;
30892;SDS011;17595;50.884;4.346;2023-08-17T08:00:36;0.52;;;0.52;;
30892;SDS011;17595;50.884;4.346;2023-08-17T08:03:02;1.15;;;0.82;;
30892;SDS011;17595;50.884;4.346;2023-08-17T08:05:28;0.93;;;0.68;;
30892;SDS011;17595;50.884;4.346;2023-08-17T08:07:54;0.60;;;0.60;;
30892;SDS011;17595;50.884;4.346;2023-08-17T08:10:20;0.30;;;0.30;;
30892;SDS011;17595;50.884;4.346;2023-08-17T08:12:45;0.85;;;0.50;;
30892;SDS011;17595;50.884;4.346;2023-08-17T08:15:11;0.70;;;0.70;;
30892;SDS011;17595;50.884;4.346;2023-08-17T08:17:36;1.77;;;0.95;;
30892;SDS011;17595;50.884;4.346;2023-08-17T08:20:02;0.55;;;0.55;;
30892;SDS011;17595;50.884;4.346;2023-08-17T08:22:29;0.70;;;0.70;;
30892;SDS011;17595;50.884;4.346;2023-08-17T08:24:54;0.45;;;0.43;;
30892;SDS011;17595;50.884;4.346;2023-08-17T08:27:20;0.28;;;0.28;;
30892;SDS011;17595;50.884;4.346;2023-08-17T08:29:46;0.60;;;0.60;;
30892;SDS011;17595;50.884;4.346;2023-08-17T08:32:12;1.17;;;0.95;;
30892;SDS011;17595;50.884;4.346;2023-08-17T08:34:38;0.65;;;0.55;;
30892;SDS011;17595;50.884;4.346;2023-08-17T08:37:03;0.50;;;0.50;;
30892;SDS011;17595;50.884;4.346;2023-08-17T08:39:29;1.52;;;1.42;;
30892;SDS011;17595;50.884;4.346;2023-08-17T08:41:55;0.50;;;0.50;;
30892;SDS011;17595;50.884;4.346;2023-08-17T08:44:21;2.47;;;1.25;;
30892;SDS011;17595;50.884;4.346;2023-08-17T08:46:46;0.40;;;0.40;;
30892;SDS011;17595;50.884;4.346;2023-08-17T08:49:16;0.30;;;0.30;;
30892;SDS011;17595;50.884;4.346;2023-08-17T08:51:46;2.08;;;1.02;;
30892;SDS011;17595;50.884;4.346;2023-08-17T08:54:17;0.40;;;0.40;;
30892;SDS011;17595;50.884;4.346;2023-08-17T08:56:45;0.85;;;0.60;;
30892;SDS011;17595;50.884;4.346;2023-08-17T08:59:12;0.60;;;0.60;;
30892;SDS011;17595;50.884;4.346;2023-08-17T09:01:39;1.38;;;0.80;;
30892;SDS011;17595;50.884;4.346;2023-08-17T09:04:06;0.40;;;0.40;;
30892;SDS011;17595;50.884;4.346;2023-08-17T09:06:32;0.30;;;0.30;;
30892;SDS011;17595;50.884;4.346;2023-08-17T09:08:58;0.75;;;0.55;;
30892;SDS011;17595;50.884;4.346;2023-08-17T09:11:27;0.68;;;0.52;;
30892;SDS011;17595;50.884;4.346;2023-08-17T09:13:53;0.30;;;0.30;;
30892;SDS011;17595;50.884;4.346;2023-08-17T09:16:19;0.80;;;0.50;;
30892;SDS011;17595;50.884;4.346;2023-08-17T09:18:45;0.50;;;0.50;;
30892;SDS011;17595;50.884;4.346;2023-08-17T09:21:21;0.73;;;0.73;;
30892;SDS011;17595;50.884;4.346;2023-08-17T09:23:52;0.77;;;0.77;;
30892;SDS011;17595;50.884;4.346;2023-08-17T09:26:19;0.98;;;0.60;;
30892;SDS011;17595;50.884;4.346;2023-08-17T09:28:48;0.80;;;0.77;;
30892;SDS011;17595;50.884;4.346;2023-08-17T09:31:14;0.60;;;0.52;;
30892;SDS011;17595;50.884;4.346;2023-08-17T09:33:40;0.75;;;0.57;;
30892;SDS011;17595;50.884;4.346;2023-08-17T09:36:05;0.70;;;0.70;;
30892;SDS011;17595;50.884;4.346;2023-08-17T09:38:31;0.30;;;0.30;;
30892;SDS011;17595;50.884;4.346;2023-08-17T09:40:57;1.38;;;1.00;;
30892;SDS011;17595;50.884;4.346;2023-08-17T09:43:23;0.93;;;0.75;;
30892;SDS011;17595;50.884;4.346;2023-08-17T09:45:53;0.75;;;0.75;;
30892;SDS011;17595;50.884;4.346;2023-08-17T09:48:19;1.65;;;0.80;;
30892;SDS011;17595;50.884;4.346;2023-08-17T09:50:46;0.45;;;0.45;;
30892;SDS011;17595;50.884;4.346;2023-08-17T09:53:16;0.75;;;0.73;;
30892;SDS011;17595;50.884;4.346;2023-08-17T09:55:43;0.82;;;0.80;;
30892;SDS011;17595;50.884;4.346;2023-08-17T09:58:10;1.42;;;0.80;;
30892;SDS011;17595;50.884;4.346;2023-08-17T10:00:42;1.02;;;0.65;;
30892;SDS011;17595;50.884;4.346;2023-08-17T10:03:18;2.25;;;1.30;;
30892;SDS011;17595;50.884;4.346;2023-08-17T10:05:45;1.48;;;1.00;;
30892;SDS011;17595;50.884;4.346;2023-08-17T10:08:17;1.65;;;1.23;;
30892;SDS011;17595;50.884;4.346;2023-08-17T10:15:43;1.13;;;1.02;;
30892;SDS011;17595;50.884;4.346;2023-08-17T10:20:58;1.35;;;0.45;;
30892;SDS011;17595;50.884;4.346;2023-08-17T10:23:30;0.73;;;0.60;;
30892;SDS011;17595;50.884;4.346;2023-08-17T10:25:57;1.75;;;1.33;;
30892;SDS011;17595;50.884;4.346;2023-08-17T10:28:25;0.73;;;0.73;;
30892;SDS011;17595;50.884;4.346;2023-08-17T10:30:51;0.82;;;0.60;;
30892;SDS011;17595;50.884;4.346;2023-08-17T10:33:17;1.17;;;0.80;;
30892;SDS011;17595;50.884;4.346;2023-08-17T10:35:44;1.83;;;1.20;;
30892;SDS011;17595;50.884;4.346;2023-08-17T10:38:11;0.68;;;0.68;;
30892;SDS011;17595;50.884;4.346;2023-08-17T10:40:38;0.80;;;0.80;;
30892;SDS011;17595;50.884;4.346;2023-08-17T10:43:06;2.10;;;0.93;;
30892;SDS011;17595;50.884;4.346;2023-08-17T10:45:33;0.80;;;0.80;;
30892;SDS011;17595;50.884;4.346;2023-08-17T10:48:44;0.70;;;0.70;;
30892;SDS011;17595;50.884;4.346;2023-08-17T10:51:02;0.80;;;0.80;;
30892;SDS011;17595;50.884;4.346;2023-08-17T10:53:35;1.25;;;0.68;;
30892;SDS011;17595;50.884;4.346;2023-08-17T10:56:06;0.60;;;0.60;;
30892;SDS011;17595;50.884;4.346;2023-08-17T10:58:33;1.02;;;0.93;;
30892;SDS011;17595;50.884;4.346;2023-08-17T11:00:59;1.65;;;1.48;;
30892;SDS011;17595;50.884;4.346;2023-08-17T11:03:24;0.93;;;0.93;;
30892;SDS011;17595;50.884;4.346;2023-08-17T11:05:52;1.23;;;0.98;;
30892;SDS011;17595;50.884;4.346;2023-08-17T11:13:29;0.85;;;0.75;;
30892;SDS011;17595;50.884;4.346;2023-08-17T11:15:57;0.98;;;0.65;;
30892;SDS011;17595;50.884;4.346;2023-08-17T11:18:23;1.77;;;1.08;;
30892;SDS011;17595;50.884;4.346;2023-08-17T11:20:49;0.52;;;0.50;;
30892;SDS011;17595;50.884;4.346;2023-08-17T11:23:16;0.90;;;0.77;;
30892;SDS011;17595;50.884;4.346;2023-08-17T11:25:42;0.60;;;0.60;;
30892;SDS011;17595;50.884;4.346;2023-08-17T11:28:08;0.95;;;0.75;;
30892;SDS011;17595;50.884;4.346;2023-08-17T11:30:34;2.00;;;1.45;;
30892;SDS011;17595;50.884;4.346;2023-08-17T11:33:02;0.85;;;0.60;;
30892;SDS011;17595;50.884;4.346;2023-08-17T11:35:28;0.60;;;0.60;;
30892;SDS011;17595;50.884;4.346;2023-08-17T11:37:54;1.42;;;1.33;;
30892;SDS011;17595;50.884;4.346;2023-08-17T11:40:19;2.28;;;1.15;;
30892;SDS011;17595;50.884;4.346;2023-08-17T11:42:45;0.70;;;0.70;;
30892;SDS011;17595;50.884;4.346;2023-08-17T11:45:11;0.70;;;0.70;;
30892;SDS011;17595;50.884;4.346;2023-08-17T11:47:38;1.40;;;1.00;;
30892;SDS011;17595;50.884;4.346;2023-08-17T11:50:05;2.53;;;1.10;;
30892;SDS011;17595;50.884;4.346;2023-08-17T11:52:33;0.73;;;0.73;;
30892;SDS011;17595;50.884;4.346;2023-08-17T11:54:59;1.10;;;0.90;;
30892;SDS011;17595;50.884;4.346;2023-08-17T11:57:25;0.40;;;0.35;;
30892;SDS011;17595;50.884;4.346;2023-08-17T11:59:54;4.45;;;0.90;;
30892;SDS011;17595;50.884;4.346;2023-08-17T12:02:22;1.75;;;1.15;;
30892;SDS011;17595;50.884;4.346;2023-08-17T12:04:48;1.50;;;1.10;;
30892;SDS011;17595;50.884;4.346;2023-08-17T12:07:15;0.95;;;0.82;;
30892;SDS011;17595;50.884;4.346;2023-08-17T12:09:44;0.80;;;0.70;;
30892;SDS011;17595;50.884;4.346;2023-08-17T12:12:11;1.20;;;1.10;;
30892;SDS011;17595;50.884;4.346;2023-08-17T12:14:40;0.95;;;0.90;;
30892;SDS011;17595;50.884;4.346;2023-08-17T12:17:10;1.13;;;1.02;;
30892;SDS011;17595;50.884;4.346;2023-08-17T12:19:40;1.05;;;0.90;;
30892;SDS011;17595;50.884;4.346;2023-08-17T12:22:06;1.52;;;1.08;;
30892;SDS011;17595;50.884;4.346;2023-08-17T12:24:31;1.30;;;1.20;;
30892;SDS011;17595;50.884;4.346;2023-08-17T12:26:57;4.10;;;1.73;;
30892;SDS011;17595;50.884;4.346;2023-08-17T12:29:24;1.98;;;1.42;;
30892;SDS011;17595;50.884;4.346;2023-08-17T12:31:51;1.42;;;1.33;;
30892;SDS011;17595;50.884;4.346;2023-08-17T12:34:17;3.80;;;1.17;;
30892;SDS011;17595;50.884;4.346;2023-08-17T12:36:43;1.35;;;0.98;;
30892;SDS011;17595;50.884;4.346;2023-08-17T12:39:09;1.17;;;1.00;;
30892;SDS011;17595;50.884;4.346;2023-08-17T12:41:35;1.77;;;1.67;;
30892;SDS011;17595;50.884;4.346;2023-08-17T12:44:01;1.35;;;1.25;;
30892;SDS011;17595;50.884;4.346;2023-08-17T12:46:26;3.28;;;1.58;;
30892;SDS011;17595;50.884;4.346;2023-08-17T12:48:52;1.25;;;0.98;;
30892;SDS011;17595;50.884;4.346;2023-08-17T12:51:18;1.35;;;1.25;;
30892;SDS011;17595;50.884;4.346;2023-08-17T12:53:44;1.58;;;1.02;;
30892;SDS011;17595;50.884;4.346;2023-08-17T12:56:09;1.67;;;1.58;;
30892;SDS011;17595;50.884;4.346;2023-08-17T12:58:35;1.63;;;1.40;;
30892;SDS011;17595;50.884;4.346;2023-08-17T13:01:01;1.42;;;1.10;;
30892;SDS011;17595;50.884;4.346;2023-08-17T13:03:27;1.75;;;1.33;;
30892;SDS011;17595;50.884;4.346;2023-08-17T13:05:53;1.13;;;1.05;;
30892;SDS011;17595;50.884;4.346;2023-08-17T13:08:19;1.55;;;1.33;;
30892;SDS011;17595;50.884;4.346;2023-08-17T13:10:45;1.20;;;1.20;;
30892;SDS011;17595;50.884;4.346;2023-08-17T13:13:10;1.23;;;1.15;;
30892;SDS011;17595;50.884;4.346;2023-08-17T13:15:36;1.95;;;1.60;;
30892;SDS011;17595;50.884;4.346;2023-08-17T13:18:02;1.90;;;1.25;;
30892;SDS011;17595;50.884;4.346;2023-08-17T13:20:27;1.80;;;1.40;;
30892;SDS011;17595;50.884;4.346;2023-08-17T13:22:53;2.80;;;1.15;;
30892;SDS011;17595;50.884;4.346;2023-08-17T13:25:19;1.40;;;1.02;;
30892;SDS011;17595;50.884;4.346;2023-08-17T13:27:45;1.40;;;1.30;;
30892;SDS011;17595;50.884;4.346;2023-08-17T13:30:10;2.17;;;1.98;;
30892;SDS011;17595;50.884;4.346;2023-08-17T13:32:36;1.83;;;1.20;;
30892;SDS011;17595;50.884;4.346;2023-08-17T13:35:02;1.60;;;1.50;;
30892;SDS011;17595;50.884;4.346;2023-08-17T13:37:28;1.52;;;1.38;;
30892;SDS011;17595;50.884;4.346;2023-08-17T13:39:54;2.80;;;2.03;;
30892;SDS011;17595;50.884;4.346;2023-08-17T13:42:20;1.77;;;1.55;;
30892;SDS011;17595;50.884;4.346;2023-08-17T13:44:45;1.42;;;1.33;;
30892;SDS011;17595;50.884;4.346;2023-08-17T13:47:11;1.90;;;1.70;;
30892;SDS011;17595;50.884;4.346;2023-08-17T13:49:37;2.10;;;1.60;;
30892;SDS011;17595;50.884;4.346;2023-08-17T13:52:03;4.30;;;2.38;;
30892;SDS011;17595;50.884;4.346;2023-08-17T13:54:29;4.00;;;1.85;;
30892;SDS011;17595;50.884;4.346;2023-08-17T13:56:55;2.00;;;1.70;;
30892;SDS011;17595;50.884;4.346;2023-08-17T13:59:20;1.80;;;1.63;;
30892;SDS011;17595;50.884;4.346;2023-08-17T14:01:46;1.25;;;1.15;;
30892;SDS011;17595;50.884;4.346;2023-08-17T14:04:12;2.33;;;1.80;;
30892;SDS011;17595;50.884;4.346;2023-08-17T14:06:39;1.88;;;1.67;;
30892;SDS011;17595;50.884;4.346;2023-08-17T14:09:05;1.70;;;1.60;;
30892;SDS011;17595;50.884;4.346;2023-08-17T14:11:31;2.13;;;1.65;;
30892;SDS011;17595;50.884;4.346;2023-08-17T14:13:56;2.63;;;1.70;;
30892;SDS011;17595;50.884;4.346;2023-08-17T14:16:22;1.30;;;1.20;;
30892;SDS011;17595;50.884;4.346;2023-08-17T14:18:48;1.27;;;1.17;;
30892;SDS011;17595;50.884;4.346;2023-08-17T14:21:13;1.70;;;1.60;;
30892;SDS011;17595;50.884;4.346;2023-08-17T14:23:39;1.23;;;1.10;;
30892;SDS011;17595;50.884;4.346;2023-08-17T14:26:05;3.17;;;1.92;;
30892;SDS011;17595;50.884;4.346;2023-08-17T14:28:31;1.85;;;1.42;;
30892;SDS011;17595;50.884;4.346;2023-08-17T14:30:57;1.17;;;1.08;;
30892;SDS011;17595;50.884;4.346;2023-08-17T14:33:22;2.08;;;1.88;;
30892;SDS011;17595;50.884;4.346;2023-08-17T14:35:48;1.75;;;1.30;;
30892;SDS011;17595;50.884;4.346;2023-08-17T14:38:14;1.85;;;1.67;;
30892;SDS011;17595;50.884;4.346;2023-08-17T14:40:42;1.73;;;1.30;;
30892;SDS011;17595;50.884;4.346;2023-08-17T14:43:10;1.90;;;1.63;;
30892;SDS011;17595;50.884;4.346;2023-08-17T14:45:39;2.42;;;1.40;;
30892;SDS011;17595;50.884;4.346;2023-08-17T14:48:05;1.50;;;1.40;;
30892;SDS011;17595;50.884;4.346;2023-08-17T14:50:32;1.42;;;1.30;;
30892;SDS011;17595;50.884;4.346;2023-08-17T14:52:58;1.67;;;1.20;;
30892;SDS011;17595;50.884;4.346;2023-08-17T14:55:27;2.70;;;1.98;;
30892;SDS011;17595;50.884;4.346;2023-08-17T14:57:56;1.65;;;1.10;;
30892;SDS011;17595;50.884;4.346;2023-08-17T15:05:33;1.25;;;1.10;;